Airfield :
LOGIN :

Register | Disclaimer

   EN    FR    IT 

 










Legend :    VFR   Marginal VFR   IFR   Intensive IFR   Very Intensive IFR
Visi :
Ceiling :
>= 8 km
>= 3000ft
5 to 8 km
1000 to 3000 ft
1500m to 5 km
500 to 1000 ft
800 to 1500m
200 to 500 ft
< 800m
< 200 ft
Symbols :   Thunderstorms  Fog  Heavy snow  Heavy precipitations  Wind > 20 kt
SIGMETs :     Misc.  Thunderstorms  Icing  Turbulence  Mountain Waves  Volcanic Ashes







- Airport Elevation : 353 ft
- IATA code : ZAG


LDZA - Zagreb Pleso

CURRENT METAR :
  • 200700Z 00000KT CAVOK 24/19 Q1012 NOSIG

EXPIRED METARs :
  • 200630Z 00000KT CAVOK 22/19 Q1012 NOSIG
  • 200600Z VRB01KT CAVOK 21/18 Q1012 NOSIG
  • 200530Z 00000KT CAVOK 21/18 Q1012 NOSIG
  • 200500Z VRB01KT CAVOK 20/18 Q1012 NOSIG
  • 200430Z 00000KT CAVOK 19/17 Q1011 NOSIG

TAF TAF LDZA
Valid from the 20 at 06:00 until the 21 at 06:00 UTC


200525Z 2006/2106 VRB02KT CAVOK TX31/2012Z TN18/2103Z
PROB30
TEMPO 2013/2017 25015KT TSRA FEW040CB
PROB30
TEMPO 2020/2022 01015KT TSRA FEW040CB
PROB30 2103/2106 0500 FG
ATIS : +385 1 6-259-214
No reported NOTAMs for that airfield.



MET'MAP, your aeronautical weather chart ! - Copyright ORBIFLY December 2007 - Disclaimer

ORBIFLY MET'MAP TEAM :

Programming & Development : Alexandra Zaïnal
Concept & Development : Baudouin d'Aumeries
Co-Development & Prog : Marc-Olivier Méhu
Technical & hardware support : Manuel Goepfert

Contact : metmap@orbifly.com




SOURCES & CREDITS :

   NOAA